Elan — WDH9968 — position and weather

sailwx.info

Track history (hours):
 
Tides and Currents Weather Stations Pressure Air Temp Water Temp Dewpoint Dewpoint Depression Visibility Wind Speed Wind Dir Waves Ship Positions

Elan

Owner: Elan Maritime LLC, Berkeley, CA. More information available from US FCC via Universal Licensing System and Coast Guard Vessel Documentation Center.

Last reported at 2018-Jul-19 22:52 UTC. Time now 2018-Jul-20 06:52 UTC.
Position N 37°52' W 122°19'.

Length 17 m.

Type: Pleasure craft. MMSI: 367673390.

Date/timePositionNaut miles runAvg speedWind from/ knotsBaromVisibWave heightAir tempDewpointWater temp
2018-Jul-19 22:52N 37°52' W 122°19'6 9.4
2018-Jul-19 22:16N 37°48' W 122°24'412.5
2018-Jul-19 21:58N 37°51' W 122°21'2 0.4
2018-Jul-19 16:15N 37°52' W 122°19'210.2
2018-Jul-19 16:00N 37°51' W 122°22'2 4.7
2018-Jul-19 15:30N 37°52' W 122°19'0 0.1
2018-Jul-19 14:59N 37°52' W 122°19'0 0.0
2018-Jul-19 00:02N 37°52' W 122°19'0 0.0
2018-Jul-18 23:56N 37°52' W 122°19'612.0
2018-Jul-18 23:28N 37°48' W 122°24'612.1
2018-Jul-18 23:00N 37°52' W 122°19'0 0.0
2018-Jul-18 16:21N 37°52' W 122°19'411.1
2018-Jul-18 16:00N 37°50' W 122°23'4 7.7
2018-Jul-18 15:30N 37°52' W 122°19'0 0.0
2018-Jul-18 14:57N 37°52' W 122°19'0 0.0
2018-Jul-17 23:52N 37°52' W 122°19'3 8.3
2018-Jul-17 23:29N 37°50' W 122°22'3 0.4
2018-Jul-17 16:14N 37°52' W 122°19'313.0
2018-Jul-17 15:59N 37°50' W 122°22'3 6.2
2018-Jul-17 15:27N 37°52' W 122°19'0 0.0
2018-Jul-17 15:00N 37°52' W 122°19'0 0.0
2018-Jul-16 22:59N 37°52' W 122°19'510.1
2018-Jul-16 22:30N 37°49' W 122°23'3 6.0
2018-Jul-16 21:59N 37°51' W 122°21'2 0.3
2018-Jul-16 16:07N 37°52' W 122°19'0 0.4
2018-Jul-16 16:00N 37°52' W 122°19'3 7.1
2018-Jul-16 15:30N 37°50' W 122°23'4 6.5
2018-Jul-16 14:58N 37°52' W 122°19'  
2018-Jul-12 23:30N 37°52' W 122°19'1 2.5
2018-Jul-12 23:00N 37°51' W 122°20'3 6.4
2018-Jul-12 22:30N 37°49' W 122°23'4 8.7
2018-Jul-12 22:00N 37°52' W 122°19'3 5.6
2018-Jul-12 21:30N 37°51' W 122°22'3 0.5
2018-Jul-12 16:15N 37°52' W 122°19'312.7
2018-Jul-12 16:00N 37°50' W 122°22'3 6.2
2018-Jul-12 15:30N 37°52' W 122°19'0 0.2
2018-Jul-12 15:00N 37°52' W 122°19'0 0.0
2018-Jul-11 23:57N 37°52' W 122°19'3 7.0
2018-Jul-11 23:30N 37°50' W 122°22'2 4.6
2018-Jul-11 23:00N 37°52' W 122°20'1 1.8
2018-Jul-11 22:29N 37°52' W 122°19'0 0.0
2018-Jul-11 21:59N 37°52' W 122°19'0 0.0
2018-Jul-11 21:29N 37°52' W 122°19'0 0.0
2018-Jul-11 20:56N 37°52' W 122°19'0 0.0
2018-Jul-11 20:29N 37°52' W 122°19'0 0.0
2018-Jul-11 19:59N 37°52' W 122°19'0 0.0
2018-Jul-11 19:29N 37°52' W 122°19'0 0.0
2018-Jul-11 18:59N 37°52' W 122°19'0 0.0
2018-Jul-11 18:20N 37°52' W 122°19'0 0.0
2018-Jul-11 17:59N 37°52' W 122°19'0 0.2
2018-Jul-11 17:02N 37°52' W 122°19'0 0.0
2018-Jul-11 16:41N 37°52' W 122°19'0 0.0
2018-Jul-11 16:29N 37°52' W 122°19'3 4.7
2018-Jul-11 15:57N 37°51' W 122°22'2 4.8
2018-Jul-11 15:30N 37°52' W 122°19'1 1.0
2018-Jul-11 14:59N 37°52' W 122°19'0 0.0
2018-Jul-11 00:13N 37°52' W 122°19'0 0.0
2018-Jul-10 23:58N 37°52' W 122°19'612.0
2018-Jul-10 23:30N 37°48' W 122°24'6 9.7
2018-Jul-10 22:55N 37°52' W 122°19'1 2.6
2018-Jul-10 22:30N 37°51' W 122°20'1 3.0
2018-Jul-10 22:00N 37°51' W 122°22'3 0.4
2018-Jul-10 15:55N 37°52' W 122°19'613.1
2018-Jul-10 15:29N 37°48' W 122°24'610.1
2018-Jul-10 14:56N 37°52' W 122°19'  
Track history (hours):
 
Tides and Currents Weather Stations Pressure Air Temp Water Temp Dewpoint Dewpoint Depression Visibility Wind Speed Wind Dir Waves Ship Positions

Elan

Owner: Elan Maritime LLC, Berkeley, CA. More information available from US FCC via Universal Licensing System and Coast Guard Vessel Documentation Center.

Last reported at 2018-Jul-19 22:52 UTC. Time now 2018-Jul-20 06:52 UTC.
Position N 37°52' W 122°19'.

Length 17 m.

Type: Pleasure craft. MMSI: 367673390.

Date/timePositionNaut miles runAvg speedWind from/ knotsBaromVisibWave heightAir tempDewpointWater temp
2018-Jul-19 22:52N 37°52' W 122°19'6 9.4
2018-Jul-19 22:16N 37°48' W 122°24'412.5
2018-Jul-19 21:58N 37°51' W 122°21'2 0.4
2018-Jul-19 16:15N 37°52' W 122°19'210.2
2018-Jul-19 16:00N 37°51' W 122°22'2 4.7
2018-Jul-19 15:30N 37°52' W 122°19'0 0.1
2018-Jul-19 14:59N 37°52' W 122°19'0 0.0
2018-Jul-19 00:02N 37°52' W 122°19'0 0.0
2018-Jul-18 23:56N 37°52' W 122°19'612.0
2018-Jul-18 23:28N 37°48' W 122°24'612.1
2018-Jul-18 23:00N 37°52' W 122°19'0 0.0
2018-Jul-18 16:21N 37°52' W 122°19'411.1
2018-Jul-18 16:00N 37°50' W 122°23'4 7.7
2018-Jul-18 15:30N 37°52' W 122°19'0 0.0
2018-Jul-18 14:57N 37°52' W 122°19'0 0.0
2018-Jul-17 23:52N 37°52' W 122°19'3 8.3
2018-Jul-17 23:29N 37°50' W 122°22'3 0.4
2018-Jul-17 16:14N 37°52' W 122°19'313.0
2018-Jul-17 15:59N 37°50' W 122°22'3 6.2
2018-Jul-17 15:27N 37°52' W 122°19'0 0.0
2018-Jul-17 15:00N 37°52' W 122°19'0 0.0
2018-Jul-16 22:59N 37°52' W 122°19'510.1
2018-Jul-16 22:30N 37°49' W 122°23'3 6.0
2018-Jul-16 21:59N 37°51' W 122°21'2 0.3
2018-Jul-16 16:07N 37°52' W 122°19'0 0.4
2018-Jul-16 16:00N 37°52' W 122°19'3 7.1
2018-Jul-16 15:30N 37°50' W 122°23'4 6.5
2018-Jul-16 14:58N 37°52' W 122°19'  
2018-Jul-12 23:30N 37°52' W 122°19'1 2.5
2018-Jul-12 23:00N 37°51' W 122°20'3 6.4
2018-Jul-12 22:30N 37°49' W 122°23'4 8.7
2018-Jul-12 22:00N 37°52' W 122°19'3 5.6
2018-Jul-12 21:30N 37°51' W 122°22'3 0.5
2018-Jul-12 16:15N 37°52' W 122°19'312.7
2018-Jul-12 16:00N 37°50' W 122°22'3 6.2
2018-Jul-12 15:30N 37°52' W 122°19'0 0.2
2018-Jul-12 15:00N 37°52' W 122°19'0 0.0
2018-Jul-11 23:57N 37°52' W 122°19'3 7.0
2018-Jul-11 23:30N 37°50' W 122°22'2 4.6
2018-Jul-11 23:00N 37°52' W 122°20'1 1.8
2018-Jul-11 22:29N 37°52' W 122°19'0 0.0
2018-Jul-11 21:59N 37°52' W 122°19'0 0.0
2018-Jul-11 21:29N 37°52' W 122°19'0 0.0
2018-Jul-11 20:56N 37°52' W 122°19'0 0.0
2018-Jul-11 20:29N 37°52' W 122°19'0 0.0
2018-Jul-11 19:59N 37°52' W 122°19'0 0.0
2018-Jul-11 19:29N 37°52' W 122°19'0 0.0
2018-Jul-11 18:59N 37°52' W 122°19'0 0.0
2018-Jul-11 18:20N 37°52' W 122°19'0 0.0
2018-Jul-11 17:59N 37°52' W 122°19'0 0.2
2018-Jul-11 17:02N 37°52' W 122°19'0 0.0
2018-Jul-11 16:41N 37°52' W 122°19'0 0.0
2018-Jul-11 16:29N 37°52' W 122°19'3 4.7
2018-Jul-11 15:57N 37°51' W 122°22'2 4.8
2018-Jul-11 15:30N 37°52' W 122°19'1 1.0
2018-Jul-11 14:59N 37°52' W 122°19'0 0.0
2018-Jul-11 00:13N 37°52' W 122°19'0 0.0
2018-Jul-10 23:58N 37°52' W 122°19'612.0
2018-Jul-10 23:30N 37°48' W 122°24'6 9.7
2018-Jul-10 22:55N 37°52' W 122°19'1 2.6
2018-Jul-10 22:30N 37°51' W 122°20'1 3.0
2018-Jul-10 22:00N 37°51' W 122°22'3 0.4
2018-Jul-10 15:55N 37°52' W 122°19'613.1
2018-Jul-10 15:29N 37°48' W 122°24'610.1
2018-Jul-10 14:56N 37°52' W 122°19'  

Dump ship's entire track history